North Stonington, Connecticut
Current Conditions -  °F | °C
As of 11:53 PM on Tuesday 25 Nov 2014 (Local Time) from KWST Reporting Station
Clear Clear  
Wind Chill:   Ceiling: Unl
Heat Index:   Visibility: 10mi
Dew Point:   Wind: 0mph
Humidity: 56%   Direction: NA
Pressure: 30.14"   Gusts: NA
Location:  41.44°N, 71.88°W
Report Text: KWST 260453Z AUTO 00000KT 10SM CLR 09/01 A3014 RMK AO2 SLP206 T00940011 401500094
Loading
Personal Weather Stations






























Interactive Weather Map New forecast layout! Learn more

10-Day Weather Forecast

Advertisements
Track Severe Weather on mobile